createdAt,value
2018-07-08T00:03:34.493Z,21.20
2018-07-08T00:08:38.490Z,21.10
2018-07-08T00:13:42.483Z,21.30
2018-07-08T00:18:46.499Z,21.40
2018-07-08T00:23:50.495Z,21.40
2018-07-08T00:28:54.570Z,21.30
2018-07-08T00:33:58.564Z,21.30
2018-07-08T00:39:02.619Z,21.20
2018-07-08T00:44:07.188Z,21.10
2018-07-08T00:49:11.376Z,21.00
2018-07-08T00:54:15.496Z,20.90
2018-07-08T00:59:19.537Z,20.80
2018-07-08T01:04:23.520Z,20.80
2018-07-08T01:09:27.493Z,20.70
2018-07-08T01:14:31.518Z,20.80
2018-07-08T01:19:35.522Z,20.80
2018-07-08T01:24:39.531Z,20.70
2018-07-08T01:29:43.511Z,20.40
2018-07-08T01:34:47.578Z,20.40
2018-07-08T01:39:51.650Z,20.30
2018-07-08T01:44:55.656Z,20.20
2018-07-08T01:49:59.671Z,20.00
2018-07-08T01:55:03.679Z,20.30
2018-07-08T02:00:08.140Z,20.50
2018-07-08T02:05:12.135Z,20.50
2018-07-08T02:10:16.136Z,20.40
2018-07-08T02:15:20.167Z,20.40
2018-07-08T02:20:24.157Z,20.20
2018-07-08T02:25:28.148Z,20.10
2018-07-08T02:30:32.935Z,20.20
2018-07-08T02:35:36.927Z,20.10
2018-07-08T02:45:44.574Z,20.10
2018-07-08T02:55:52.205Z,19.70
2018-07-08T03:00:56.509Z,19.80
2018-07-08T03:06:00.484Z,19.80
2018-07-08T03:21:12.103Z,19.40
2018-07-08T03:26:16.084Z,19.10
2018-07-08T03:31:20.075Z,19.40
2018-07-08T03:36:24.081Z,19.60
2018-07-08T03:41:28.229Z,19.50
2018-07-08T03:46:32.212Z,19.40
2018-07-08T03:51:36.204Z,19.10
2018-07-08T03:56:40.187Z,19.00
2018-07-08T04:01:44.205Z,18.90
2018-07-08T04:06:48.212Z,19.10
2018-07-08T04:11:52.199Z,19.40
2018-07-08T04:16:56.246Z,19.50
2018-07-08T04:22:00.224Z,19.50
2018-07-08T04:27:04.450Z,19.60
2018-07-08T04:32:08.466Z,19.30
2018-07-08T04:37:12.447Z,19.40
2018-07-08T04:42:16.474Z,19.90
2018-07-08T04:52:24.139Z,20.00
2018-07-08T04:57:28.143Z,20.10
2018-07-08T05:02:32.557Z,20.10
2018-07-08T05:07:36.660Z,19.70
2018-07-08T05:12:40.656Z,19.70
2018-07-08T05:17:44.650Z,20.40
2018-07-08T05:22:48.635Z,21.00
2018-07-08T05:27:52.647Z,21.00
2018-07-08T05:32:56.738Z,21.00
2018-07-08T05:38:00.814Z,20.90
2018-07-08T05:43:04.869Z,20.90
2018-07-08T05:48:08.878Z,21.30
2018-07-08T05:53:12.889Z,21.70
2018-07-08T05:58:16.889Z,21.80
2018-07-08T06:03:20.946Z,22.00
2018-07-08T06:08:24.975Z,22.20
2018-07-08T06:13:28.980Z,22.60
2018-07-08T06:18:32.972Z,22.50
2018-07-08T06:23:36.977Z,22.60
2018-07-08T06:33:44.670Z,22.60
2018-07-08T06:38:48.650Z,23.10
2018-07-08T06:43:52.826Z,23.20
2018-07-08T06:48:56.842Z,23.70
2018-07-08T06:54:00.856Z,23.90
2018-07-08T06:59:04.904Z,23.50
2018-07-08T07:04:09.284Z,24.20
2018-07-08T07:09:13.316Z,25.10
2018-07-08T07:14:17.334Z,25.40
2018-07-08T07:19:21.334Z,25.20
2018-07-08T07:24:25.318Z,25.50
2018-07-08T07:29:29.308Z,26.00
2018-07-08T07:34:33.331Z,26.00
2018-07-08T07:44:40.947Z,26.90
2018-07-08T07:49:44.940Z,27.50
2018-07-08T07:54:48.996Z,28.20
2018-07-08T07:59:52.971Z,28.20
2018-07-08T08:04:57.009Z,27.70
2018-07-08T08:10:01.020Z,28.30
2018-07-08T08:15:05.024Z,28.30
2018-07-08T08:20:09.075Z,28.30
2018-07-08T08:25:13.090Z,28.40
2018-07-08T08:30:17.095Z,28.30
2018-07-08T08:35:21.108Z,27.30
2018-07-08T08:40:27.367Z,28.20
2018-07-08T08:45:31.396Z,28.20
2018-07-08T08:50:35.414Z,29.10
2018-07-08T08:55:39.465Z,29.00
2018-07-08T09:00:43.454Z,29.70
2018-07-08T09:05:47.526Z,30.20
2018-07-08T09:10:52.428Z,29.80
2018-07-08T09:15:56.391Z,30.60
2018-07-08T09:21:00.391Z,30.60
2018-07-08T09:26:04.409Z,30.10
2018-07-08T09:31:08.411Z,29.20
2018-07-08T09:36:12.492Z,30.40
2018-07-08T09:41:16.479Z,30.80
2018-07-08T09:46:20.530Z,29.80
2018-07-08T09:51:24.524Z,29.10
2018-07-08T09:56:28.547Z,28.80
2018-07-08T10:01:50.795Z,28.60
2018-07-08T10:06:55.263Z,29.20
2018-07-08T10:11:59.244Z,29.20
2018-07-08T10:17:03.218Z,30.50
2018-07-08T10:22:07.217Z,31.00
2018-07-08T10:27:36.278Z,31.10
2018-07-08T10:32:40.323Z,31.50
2018-07-08T10:37:44.320Z,31.60
2018-07-08T10:42:48.295Z,31.30
2018-07-08T10:47:52.283Z,31.30
2018-07-08T10:52:56.275Z,30.80
2018-07-08T10:58:00.295Z,31.90
2018-07-08T11:03:04.296Z,31.70
2018-07-08T11:08:08.337Z,31.60
2018-07-08T11:13:12.311Z,33.00
2018-07-08T11:18:16.351Z,32.60
2018-07-08T11:28:23.996Z,32.90
2018-07-08T11:33:27.987Z,32.50
2018-07-08T11:38:31.997Z,32.40
2018-07-08T11:43:35.985Z,33.30
2018-07-08T11:48:39.960Z,33.30
2018-07-08T11:53:43.969Z,33.30
2018-07-08T11:58:47.972Z,33.90
2018-07-08T12:03:51.973Z,35.10
2018-07-08T12:08:56.015Z,34.30
2018-07-08T12:14:00.031Z,34.40
2018-07-08T12:19:04.068Z,35.40
2018-07-08T12:24:08.044Z,35.50
2018-07-08T12:29:12.042Z,35.40
2018-07-08T12:34:16.043Z,35.10
2018-07-08T12:39:20.071Z,35.60
2018-07-08T12:44:24.215Z,35.10
2018-07-08T12:49:28.097Z,35.30
2018-07-08T12:54:32.129Z,35.40
2018-07-08T12:59:36.127Z,35.10
2018-07-08T13:04:40.155Z,35.30
2018-07-08T13:09:44.597Z,34.00
2018-07-08T13:14:48.592Z,35.70
2018-07-08T13:19:52.646Z,35.80
2018-07-08T13:24:56.616Z,36.30
2018-07-08T13:30:00.710Z,36.60
2018-07-08T13:35:04.711Z,36.30
2018-07-08T13:40:08.717Z,35.30
2018-07-08T13:45:12.750Z,36.60
2018-07-08T13:50:16.760Z,37.20
2018-07-08T13:55:20.772Z,37.40
2018-07-08T14:00:24.749Z,37.80
2018-07-08T14:05:28.770Z,36.70
2018-07-08T14:10:32.771Z,36.80
2018-07-08T14:15:36.760Z,37.20
2018-07-08T14:20:40.951Z,37.30
2018-07-08T14:25:44.768Z,37.60
2018-07-08T14:30:48.779Z,37.50
2018-07-08T14:35:52.791Z,37.30
2018-07-08T14:40:56.897Z,37.50
2018-07-08T14:46:00.899Z,37.60
2018-07-08T14:51:04.891Z,37.50
2018-07-08T14:56:08.895Z,37.10
2018-07-08T15:01:12.901Z,36.70
2018-07-08T15:06:16.896Z,36.90
2018-07-08T15:11:21.035Z,36.90
2018-07-08T15:16:25.094Z,36.40
2018-07-08T15:21:29.063Z,36.40
2018-07-08T15:26:33.096Z,36.40
2018-07-08T15:31:37.387Z,36.20
2018-07-08T15:36:41.404Z,36.20
2018-07-08T15:41:45.415Z,35.70
2018-07-08T15:46:49.417Z,35.10
2018-07-08T15:51:53.535Z,34.70
2018-07-08T16:02:01.163Z,34.10
2018-07-08T16:07:05.168Z,34.00
2018-07-08T16:12:09.159Z,33.90
2018-07-08T16:17:13.160Z,34.00
2018-07-08T16:27:20.776Z,33.90
2018-07-08T16:32:24.877Z,34.20
2018-07-08T16:37:28.851Z,34.20
2018-07-08T16:47:36.534Z,34.10
2018-07-08T16:52:40.524Z,34.20
2018-07-08T16:57:44.538Z,34.30
2018-07-08T17:02:49.298Z,32.60
2018-07-08T17:07:53.809Z,32.50
2018-07-08T17:12:57.843Z,31.50
2018-07-08T17:18:01.839Z,30.90
2018-07-08T17:23:05.829Z,30.80
2018-07-08T17:28:09.850Z,30.60
2018-07-08T17:33:13.932Z,30.40
2018-07-08T17:38:17.903Z,30.40
2018-07-08T17:43:22.208Z,30.20
2018-07-08T17:48:26.227Z,30.20
2018-07-08T17:53:31.313Z,30.30
2018-07-08T17:58:35.305Z,30.20
2018-07-08T18:03:39.294Z,30.00
2018-07-08T18:08:43.324Z,29.90
2018-07-08T18:13:47.360Z,29.60
2018-07-08T18:18:51.362Z,29.60
2018-07-08T18:23:55.346Z,29.40
2018-07-08T18:28:59.332Z,29.40
2018-07-08T18:34:03.334Z,29.20
2018-07-08T18:39:08.311Z,29.00
2018-07-08T18:44:12.330Z,28.60
2018-07-08T18:49:16.324Z,28.30
2018-07-08T18:54:20.551Z,28.10
2018-07-08T18:59:24.581Z,27.90
2018-07-08T19:04:28.992Z,27.90
2018-07-08T19:09:33.042Z,27.70
2018-07-08T19:14:37.076Z,27.70
2018-07-08T19:19:41.103Z,27.50
2018-07-08T19:24:45.157Z,27.40
2018-07-08T19:29:49.150Z,27.10
2018-07-08T19:34:53.159Z,26.90
2018-07-08T19:39:57.167Z,26.80
2018-07-08T19:45:01.271Z,26.60
2018-07-08T19:50:05.310Z,26.40
2018-07-08T19:55:09.324Z,26.10
2018-07-08T20:00:13.688Z,26.00
2018-07-08T20:05:17.700Z,25.80
2018-07-08T20:15:25.417Z,25.60
2018-07-08T20:20:29.460Z,25.50
2018-07-08T20:25:33.504Z,25.40
2018-07-08T20:30:37.521Z,25.20
2018-07-08T20:40:45.206Z,25.00
2018-07-08T20:45:49.192Z,25.00
2018-07-08T20:50:53.206Z,24.80
2018-07-08T20:55:57.255Z,24.60
2018-07-08T21:01:01.272Z,24.50
2018-07-08T21:11:08.921Z,24.30
2018-07-08T21:16:13.057Z,24.10
2018-07-08T21:21:17.031Z,24.00
2018-07-08T21:26:21.051Z,23.90
2018-07-08T21:31:25.148Z,23.80
2018-07-08T21:36:29.219Z,23.70
2018-07-08T21:41:33.353Z,23.70
2018-07-08T21:46:38.386Z,23.50
2018-07-08T21:51:42.416Z,23.40
2018-07-08T21:56:46.428Z,23.40
2018-07-08T22:12:09.842Z,23.10
2018-07-08T22:17:14.239Z,23.00
2018-07-08T22:22:18.271Z,23.00
2018-07-08T22:27:22.299Z,23.00
2018-07-08T22:32:26.292Z,22.90
2018-07-08T22:37:30.524Z,22.80
2018-07-08T22:42:34.521Z,22.80
2018-07-08T22:47:38.517Z,22.80
2018-07-08T22:52:42.546Z,22.70
2018-07-08T23:03:05.446Z,22.40
2018-07-08T23:08:09.468Z,22.50
2018-07-08T23:18:17.138Z,22.40
2018-07-08T23:23:21.144Z,22.40
2018-07-08T23:28:25.166Z,22.40
2018-07-08T23:43:36.909Z,22.20
2018-07-08T23:48:40.935Z,22.00
2018-07-08T23:53:44.927Z,21.80
2018-07-08T23:58:48.915Z,21.60
